sensor_id;sensor_type;location;lat;lon;timestamp;pressure;altitude;pressure_sealevel;temperature;humidity
6032;BME280;3044;43.232;27.972;2023-05-28T00:01:28;43828.72;;;-143.84;94.20
6032;BME280;3044;43.232;27.972;2023-05-28T00:03:56;43826.81;;;-143.84;94.19
6032;BME280;3044;43.232;27.972;2023-05-28T00:06:24;43824.91;;;-143.84;94.22
6032;BME280;3044;43.232;27.972;2023-05-28T00:08:51;43830.63;;;-143.84;94.62
6032;BME280;3044;43.232;27.972;2023-05-28T00:11:18;43847.75;;;-143.84;94.65
6032;BME280;3044;43.232;27.972;2023-05-28T00:13:47;43861.06;;;-143.84;95.17
6032;BME280;3044;43.232;27.972;2023-05-28T00:16:14;43838.25;;;-143.84;95.30
6032;BME280;3044;43.232;27.972;2023-05-28T00:18:41;43872.50;;;-143.84;95.57
6032;BME280;3044;43.232;27.972;2023-05-28T00:21:08;43872.50;;;-143.84;95.65
6032;BME280;3044;43.232;27.972;2023-05-28T00:23:37;43887.72;;;-143.84;95.83
6032;BME280;3044;43.232;27.972;2023-05-28T00:26:04;43882.00;;;-143.84;95.76
6032;BME280;3044;43.232;27.972;2023-05-28T00:28:31;43864.88;;;-143.84;95.84
6032;BME280;3044;43.232;27.972;2023-05-28T00:30:58;43899.16;;;-143.84;96.09
6032;BME280;3044;43.232;27.972;2023-05-28T00:33:26;43906.75;;;-143.84;96.12
6032;BME280;3044;43.232;27.972;2023-05-28T00:35:53;43910.56;;;-143.84;96.27
6032;BME280;3044;43.232;27.972;2023-05-28T00:38:21;43902.97;;;-143.84;96.31
6032;BME280;3044;43.232;27.972;2023-05-28T00:40:50;43914.38;;;-143.84;96.21
6032;BME280;3044;43.232;27.972;2023-05-28T00:43:20;43895.34;;;-143.84;96.05
6032;BME280;3044;43.232;27.972;2023-05-28T00:45:47;43883.91;;;-143.84;95.95
6032;BME280;3044;43.232;27.972;2023-05-28T00:48:15;43880.13;;;-143.84;95.98
6032;BME280;3044;43.232;27.972;2023-05-28T00:50:42;43895.34;;;-143.84;96.10
6032;BME280;3044;43.232;27.972;2023-05-28T00:53:11;43914.38;;;-143.84;96.13
6032;BME280;3044;43.232;27.972;2023-05-28T00:55:38;43895.34;;;-143.84;96.10
6032;BME280;3044;43.232;27.972;2023-05-28T00:58:07;43914.38;;;-143.84;96.38
6032;BME280;3044;43.232;27.972;2023-05-28T01:00:35;43908.66;;;-143.84;96.68
6032;BME280;3044;43.232;27.972;2023-05-28T01:03:03;43910.56;;;-143.84;96.60
6032;BME280;3044;43.232;27.972;2023-05-28T01:05:31;43916.28;;;-143.84;96.87
6032;BME280;3044;43.232;27.972;2023-05-28T01:08:00;43931.50;;;-143.84;96.67
6032;BME280;3044;43.232;27.972;2023-05-28T01:10:27;43912.47;;;-143.84;96.91
6032;BME280;3044;43.232;27.972;2023-05-28T01:12:55;43910.56;;;-143.84;96.68
6032;BME280;3044;43.232;27.972;2023-05-28T01:15:24;43931.50;;;-143.84;96.78
6032;BME280;3044;43.232;27.972;2023-05-28T01:17:55;43925.78;;;-143.84;96.98
6032;BME280;3044;43.232;27.972;2023-05-28T01:20:24;43941.03;;;-143.84;96.83
6032;BME280;3044;43.232;27.972;2023-05-28T01:22:55;43929.59;;;-143.84;96.86
6032;BME280;3044;43.232;27.972;2023-05-28T01:25:24;43948.63;;;-143.84;96.85
6032;BME280;3044;43.232;27.972;2023-05-28T01:27:53;43925.78;;;-143.84;96.94
6032;BME280;3044;43.232;27.972;2023-05-28T01:30:21;43916.28;;;-143.84;96.56
6032;BME280;3044;43.232;27.972;2023-05-28T01:32:48;43910.56;;;-143.84;96.51
6032;BME280;3044;43.232;27.972;2023-05-28T01:35:15;43925.78;;;-143.84;96.47
6032;BME280;3044;43.232;27.972;2023-05-28T01:37:46;43902.97;;;-143.84;96.49
6032;BME280;3044;43.232;27.972;2023-05-28T01:40:16;43895.34;;;-143.84;96.30
6032;BME280;3044;43.232;27.972;2023-05-28T01:42:45;43927.69;;;-143.84;96.33
6032;BME280;3044;43.232;27.972;2023-05-28T01:45:14;43908.66;;;-143.84;96.31
6032;BME280;3044;43.232;27.972;2023-05-28T01:47:42;43897.25;;;-143.84;96.27
6032;BME280;3044;43.232;27.972;2023-05-28T01:50:09;43906.75;;;-143.84;96.25
6032;BME280;3044;43.232;27.972;2023-05-28T01:52:37;43916.28;;;-143.84;96.27
6032;BME280;3044;43.232;27.972;2023-05-28T01:55:05;43916.28;;;-143.84;96.30
6032;BME280;3044;43.232;27.972;2023-05-28T01:57:34;43918.19;;;-143.84;96.13
6032;BME280;3044;43.232;27.972;2023-05-28T02:00:03;43914.38;;;-143.84;96.36
6032;BME280;3044;43.232;27.972;2023-05-28T02:02:31;43897.25;;;-143.84;96.30
6032;BME280;3044;43.232;27.972;2023-05-28T02:04:59;43910.56;;;-143.84;96.41
6032;BME280;3044;43.232;27.972;2023-05-28T02:07:26;43916.28;;;-143.84;96.57
6032;BME280;3044;43.232;27.972;2023-05-28T02:09:54;43933.41;;;-143.84;96.36
6032;BME280;3044;43.232;27.972;2023-05-28T02:12:21;43923.91;;;-143.84;96.53
6032;BME280;3044;43.232;27.972;2023-05-28T02:14:48;43912.47;;;-143.84;96.56
6032;BME280;3044;43.232;27.972;2023-05-28T02:17:16;43929.59;;;-143.84;96.51
6032;BME280;3044;43.232;27.972;2023-05-28T02:19:44;43918.19;;;-143.84;96.58
6032;BME280;3044;43.232;27.972;2023-05-28T02:22:11;43939.13;;;-143.84;96.81
6032;BME280;3044;43.232;27.972;2023-05-28T02:24:39;43946.75;;;-143.84;97.19
6032;BME280;3044;43.232;27.972;2023-05-28T02:27:06;43954.34;;;-143.84;97.33
6032;BME280;3044;43.232;27.972;2023-05-28T02:29:33;43952.44;;;-143.84;97.29
6032;BME280;3044;43.232;27.972;2023-05-28T02:32:01;43961.97;;;-143.84;97.55
6032;BME280;3044;43.232;27.972;2023-05-28T02:34:30;43969.59;;;-143.84;97.47
6032;BME280;3044;43.232;27.972;2023-05-28T02:36:57;43965.78;;;-143.84;97.61
6032;BME280;3044;43.232;27.972;2023-05-28T02:39:25;43960.06;;;-143.84;97.65
6032;BME280;3044;43.232;27.972;2023-05-28T02:41:52;43982.91;;;-143.84;97.84
6032;BME280;3044;43.232;27.972;2023-05-28T02:44:21;43971.47;;;-143.84;97.99
6032;BME280;3044;43.232;27.972;2023-05-28T02:46:48;43988.63;;;-143.84;97.89
6032;BME280;3044;43.232;27.972;2023-05-28T02:49:15;43982.91;;;-143.84;98.02
6032;BME280;3044;43.232;27.972;2023-05-28T02:51:44;43979.09;;;-143.84;98.03
6032;BME280;3044;43.232;27.972;2023-05-28T02:54:11;43988.63;;;-143.84;98.18
6032;BME280;3044;43.232;27.972;2023-05-28T02:56:38;43990.53;;;-143.84;98.29
6032;BME280;3044;43.232;27.972;2023-05-28T02:59:05;43981.00;;;-143.84;98.13
6032;BME280;3044;43.232;27.972;2023-05-28T03:01:32;44003.84;;;-143.84;98.18
6032;BME280;3044;43.232;27.972;2023-05-28T03:03:59;43986.72;;;-143.84;98.12
6032;BME280;3044;43.232;27.972;2023-05-28T03:06:26;43981.00;;;-143.84;97.61
6032;BME280;3044;43.232;27.972;2023-05-28T03:08:54;43961.97;;;-143.84;97.22
6032;BME280;3044;43.232;27.972;2023-05-28T03:11:22;43942.94;;;-143.84;96.98
6032;BME280;3044;43.232;27.972;2023-05-28T03:13:49;43956.25;;;-143.84;96.90
6032;BME280;3044;43.232;27.972;2023-05-28T03:16:16;43916.28;;;-143.84;96.55
6032;BME280;3044;43.232;27.972;2023-05-28T03:18:43;43908.66;;;-143.84;96.44
6032;BME280;3044;43.232;27.972;2023-05-28T03:21:10;43927.69;;;-143.84;96.31
6032;BME280;3044;43.232;27.972;2023-05-28T03:23:37;43935.31;;;-143.84;96.07
6032;BME280;3044;43.232;27.972;2023-05-28T03:26:06;43902.97;;;-143.84;95.79
6032;BME280;3044;43.232;27.972;2023-05-28T03:28:33;43874.41;;;-143.84;95.72
6032;BME280;3044;43.232;27.972;2023-05-28T03:31:00;43893.44;;;-143.84;95.70
6032;BME280;3044;43.232;27.972;2023-05-28T03:33:27;43885.81;;;-143.84;95.36
6032;BME280;3044;43.232;27.972;2023-05-28T03:35:54;43889.63;;;-143.84;95.08
6032;BME280;3044;43.232;27.972;2023-05-28T03:38:21;43872.50;;;-143.84;94.92
6032;BME280;3044;43.232;27.972;2023-05-28T03:40:48;43878.22;;;-143.84;94.68
6032;BME280;3044;43.232;27.972;2023-05-28T03:43:17;43859.19;;;-143.84;94.65
6032;BME280;3044;43.232;27.972;2023-05-28T03:45:44;43851.56;;;-143.84;94.28
6032;BME280;3044;43.232;27.972;2023-05-28T03:48:11;43864.88;;;-143.84;94.29
6032;BME280;3044;43.232;27.972;2023-05-28T03:50:38;43830.63;;;-143.84;94.01
6032;BME280;3044;43.232;27.972;2023-05-28T03:53:05;43809.69;;;-143.84;93.21
6032;BME280;3044;43.232;27.972;2023-05-28T03:55:33;43796.34;;;-143.84;92.98
6032;BME280;3044;43.232;27.972;2023-05-28T03:58:01;43786.84;;;-143.84;92.80
6032;BME280;3044;43.232;27.972;2023-05-28T04:00:30;43800.16;;;-143.84;92.90
6032;BME280;3044;43.232;27.972;2023-05-28T04:02:57;43821.09;;;-143.84;92.53
6032;BME280;3044;43.232;27.972;2023-05-28T04:05:24;43823.00;;;-143.84;92.32
6032;BME280;3044;43.232;27.972;2023-05-28T04:07:51;43819.19;;;-143.84;91.71
6032;BME280;3044;43.232;27.972;2023-05-28T04:10:18;43817.31;;;-143.84;91.80
6032;BME280;3044;43.232;27.972;2023-05-28T04:12:45;43849.66;;;-143.84;91.62
6032;BME280;3044;43.232;27.972;2023-05-28T04:15:12;43904.84;;;-143.84;91.28
6032;BME280;3044;43.232;27.972;2023-05-28T04:17:41;43895.34;;;-143.84;91.21
6032;BME280;3044;43.232;27.972;2023-05-28T04:20:09;43876.31;;;-143.84;91.20
6032;BME280;3044;43.232;27.972;2023-05-28T04:22:37;43908.66;;;-143.84;91.26
6032;BME280;3044;43.232;27.972;2023-05-28T04:25:05;43979.09;;;-143.84;90.81
6032;BME280;3044;43.232;27.972;2023-05-28T04:27:33;43973.38;;;-143.84;90.67
6032;BME280;3044;43.232;27.972;2023-05-28T04:30:00;43952.44;;;-143.84;91.02
6032;BME280;3044;43.232;27.972;2023-05-28T04:32:27;43929.59;;;-143.84;91.09
6032;BME280;3044;43.232;27.972;2023-05-28T04:34:58;43876.31;;;-143.84;91.15
6032;BME280;3044;43.232;27.972;2023-05-28T04:37:28;43868.69;;;-143.84;91.38
6032;BME280;3044;43.232;27.972;2023-05-28T04:39:56;43836.34;;;-143.84;91.68
6032;BME280;3044;43.232;27.972;2023-05-28T04:42:23;43824.91;;;-143.84;91.83
6032;BME280;3044;43.232;27.972;2023-05-28T04:44:50;43866.78;;;-143.84;91.32
6032;BME280;3044;43.232;27.972;2023-05-28T04:47:19;43914.38;;;-143.84;91.04
6032;BME280;3044;43.232;27.972;2023-05-28T04:49:48;43891.53;;;-143.84;91.12
6032;BME280;3044;43.232;27.972;2023-05-28T04:52:16;43918.19;;;-143.84;90.72
6032;BME280;3044;43.232;27.972;2023-05-28T04:54:45;43941.03;;;-143.84;90.55
6032;BME280;3044;43.232;27.972;2023-05-28T04:57:12;44047.63;;;-143.84;90.07
6032;BME280;3044;43.232;27.972;2023-05-28T04:59:39;44091.41;;;-143.84;89.78
6032;BME280;3044;43.232;27.972;2023-05-28T05:02:06;44218.94;;;-143.84;89.27
6032;BME280;3044;43.232;27.972;2023-05-28T05:04:34;44217.06;;;-143.84;89.21
6032;BME280;3044;43.232;27.972;2023-05-28T05:07:01;44323.66;;;-143.84;88.73
6032;BME280;3044;43.232;27.972;2023-05-28T05:09:30;44321.75;;;-143.84;88.79
6032;BME280;3044;43.232;27.972;2023-05-28T05:11:57;44373.16;;;-143.84;88.77
6032;BME280;3044;43.232;27.972;2023-05-28T05:14:25;44415.03;;;-143.84;88.42
6032;BME280;3044;43.232;27.972;2023-05-28T05:16:52;44426.47;;;-143.84;88.53
6032;BME280;3044;43.232;27.972;2023-05-28T05:19:19;44462.63;;;-143.84;88.28
6032;BME280;3044;43.232;27.972;2023-05-28T05:21:46;44474.06;;;-143.84;88.25
6032;BME280;3044;43.232;27.972;2023-05-28T05:24:13;44483.56;;;-143.84;88.01
6032;BME280;3044;43.232;27.972;2023-05-28T05:26:42;44460.72;;;-143.84;88.19
6032;BME280;3044;43.232;27.972;2023-05-28T05:29:09;44470.25;;;-143.84;88.25
6032;BME280;3044;43.232;27.972;2023-05-28T05:31:36;44380.78;;;-143.84;88.56
6032;BME280;3044;43.232;27.972;2023-05-28T05:34:03;44380.78;;;-143.84;88.58
6032;BME280;3044;43.232;27.972;2023-05-28T05:36:31;44234.19;;;-143.84;89.25
6032;BME280;3044;43.232;27.972;2023-05-28T05:38:58;44165.66;;;-143.84;89.31
6032;BME280;3044;43.232;27.972;2023-05-28T05:41:25;44146.63;;;-143.84;89.56
6032;BME280;3044;43.232;27.972;2023-05-28T05:43:54;44127.56;;;-143.84;89.62
6032;BME280;3044;43.232;27.972;2023-05-28T05:46:21;44097.13;;;-143.84;89.89
6032;BME280;3044;43.232;27.972;2023-05-28T05:48:48;44009.56;;;-143.84;90.27
6032;BME280;3044;43.232;27.972;2023-05-28T05:51:15;44007.66;;;-143.84;90.46
6032;BME280;3044;43.232;27.972;2023-05-28T05:53:44;43885.81;;;-143.84;90.90
6032;BME280;3044;43.232;27.972;2023-05-28T05:56:11;43861.06;;;-143.84;91.49
6032;BME280;3044;43.232;27.972;2023-05-28T05:58:38;43853.47;;;-143.84;91.73
6032;BME280;3044;43.232;27.972;2023-05-28T06:01:08;43849.66;;;-143.84;91.64
6032;BME280;3044;43.232;27.972;2023-05-28T06:03:38;43861.06;;;-143.84;91.75
6032;BME280;3044;43.232;27.972;2023-05-28T06:06:06;43813.50;;;-143.84;92.11
6032;BME280;3044;43.232;27.972;2023-05-28T06:08:33;43815.41;;;-143.84;92.29
6032;BME280;3044;43.232;27.972;2023-05-28T06:11:01;43838.25;;;-143.84;92.50
6032;BME280;3044;43.232;27.972;2023-05-28T06:13:28;43809.69;;;-143.84;92.60
6032;BME280;3044;43.232;27.972;2023-05-28T06:15:56;43830.63;;;-143.84;92.61
6032;BME280;3044;43.232;27.972;2023-05-28T06:18:24;43809.69;;;-143.84;92.76
6032;BME280;3044;43.232;27.972;2023-05-28T06:20:51;43838.25;;;-143.84;92.86
6032;BME280;3044;43.232;27.972;2023-05-28T06:23:18;43821.09;;;-143.84;93.11
6032;BME280;3044;43.232;27.972;2023-05-28T06:25:45;43817.31;;;-143.84;93.25
6032;BME280;3044;43.232;27.972;2023-05-28T06:28:13;43813.50;;;-143.84;93.40
6032;BME280;3044;43.232;27.972;2023-05-28T06:30:40;43824.91;;;-143.84;93.85
6032;BME280;3044;43.232;27.972;2023-05-28T06:33:08;43834.44;;;-143.84;94.17
6032;BME280;3044;43.232;27.972;2023-05-28T06:35:36;43861.06;;;-143.84;94.22
6032;BME280;3044;43.232;27.972;2023-05-28T06:38:03;43851.56;;;-143.84;93.98
6032;BME280;3044;43.232;27.972;2023-05-28T06:40:30;43845.84;;;-143.84;94.03
6032;BME280;3044;43.232;27.972;2023-05-28T06:42:58;43862.97;;;-143.84;94.12
6032;BME280;3044;43.232;27.972;2023-05-28T06:45:26;43840.13;;;-143.84;94.11
6032;BME280;3044;43.232;27.972;2023-05-28T06:47:54;43836.34;;;-143.84;94.39
6032;BME280;3044;43.232;27.972;2023-05-28T06:50:21;43889.63;;;-143.84;94.58
6032;BME280;3044;43.232;27.972;2023-05-28T06:52:50;43866.78;;;-143.84;94.93
6032;BME280;3044;43.232;27.972;2023-05-28T06:55:17;43870.59;;;-143.84;95.13
6032;BME280;3044;43.232;27.972;2023-05-28T06:57:44;43868.69;;;-143.84;95.36
6032;BME280;3044;43.232;27.972;2023-05-28T07:00:12;43893.44;;;-143.84;95.34
6032;BME280;3044;43.232;27.972;2023-05-28T07:02:43;43895.34;;;-143.84;95.64
6032;BME280;3044;43.232;27.972;2023-05-28T07:05:10;43891.53;;;-143.84;95.72
6032;BME280;3044;43.232;27.972;2023-05-28T07:07:38;43901.06;;;-143.84;95.84
6032;BME280;3044;43.232;27.972;2023-05-28T07:10:07;43914.38;;;-143.84;95.92
6032;BME280;3044;43.232;27.972;2023-05-28T07:12:35;43916.28;;;-143.84;96.04
6032;BME280;3044;43.232;27.972;2023-05-28T07:15:03;43937.22;;;-143.84;96.03
6032;BME280;3044;43.232;27.972;2023-05-28T07:17:32;43925.78;;;-143.84;96.27
6032;BME280;3044;43.232;27.972;2023-05-28T07:19:59;43944.84;;;-143.84;96.16
6032;BME280;3044;43.232;27.972;2023-05-28T07:22:26;43942.94;;;-143.84;96.02
6032;BME280;3044;43.232;27.972;2023-05-28T07:24:53;43908.66;;;-143.84;95.78
6032;BME280;3044;43.232;27.972;2023-05-28T07:27:22;43901.06;;;-143.84;95.57
6032;BME280;3044;43.232;27.972;2023-05-28T07:29:49;43872.50;;;-143.84;94.90
6032;BME280;3044;43.232;27.972;2023-05-28T07:32:16;43893.44;;;-143.84;95.08
6032;BME280;3044;43.232;27.972;2023-05-28T07:34:43;43876.31;;;-143.84;95.00
6032;BME280;3044;43.232;27.972;2023-05-28T07:37:10;43840.13;;;-143.84;93.71
6032;BME280;3044;43.232;27.972;2023-05-28T07:39:38;43802.06;;;-143.84;92.01
6032;BME280;3044;43.232;27.972;2023-05-28T07:42:05;43834.44;;;-143.84;90.73
6032;BME280;3044;43.232;27.972;2023-05-28T07:44:34;43952.44;;;-143.84;89.62
6032;BME280;3044;43.232;27.972;2023-05-28T07:47:02;43939.13;;;-143.84;89.72
6032;BME280;3044;43.232;27.972;2023-05-28T07:49:29;44129.47;;;-143.84;88.90
6032;BME280;3044;43.232;27.972;2023-05-28T07:51:56;44199.91;;;-143.84;88.47
6032;BME280;3044;43.232;27.972;2023-05-28T07:54:23;44239.91;;;-143.84;88.23
6032;BME280;3044;43.232;27.972;2023-05-28T07:56:51;44323.66;;;-143.84;87.98
6032;BME280;3044;43.232;27.972;2023-05-28T07:59:18;44333.19;;;-143.84;88.03
6032;BME280;3044;43.232;27.972;2023-05-28T08:01:48;44512.13;;;-143.84;87.44
6032;BME280;3044;43.232;27.972;2023-05-28T08:04:15;44424.56;;;-143.84;87.82
6032;BME280;3044;43.232;27.972;2023-05-28T08:06:42;44365.53;;;-143.84;88.16
6032;BME280;3044;43.232;27.972;2023-05-28T08:09:10;44356.03;;;-143.84;88.21
6032;BME280;3044;43.232;27.972;2023-05-28T08:11:37;44232.28;;;-143.84;88.73
6032;BME280;3044;43.232;27.972;2023-05-28T08:14:04;44104.72;;;-143.84;89.04
6032;BME280;3044;43.232;27.972;2023-05-28T08:16:31;44095.22;;;-143.84;89.48
6032;BME280;3044;43.232;27.972;2023-05-28T08:19:00;43969.59;;;-143.84;90.18
6032;BME280;3044;43.232;27.972;2023-05-28T08:21:27;43944.84;;;-143.84;90.63
6032;BME280;3044;43.232;27.972;2023-05-28T08:23:54;43817.31;;;-143.84;91.16
6032;BME280;3044;43.232;27.972;2023-05-28T08:26:22;43807.78;;;-143.84;91.76
6032;BME280;3044;43.232;27.972;2023-05-28T08:28:49;43826.81;;;-143.84;91.83
6032;BME280;3044;43.232;27.972;2023-05-28T08:31:16;43783.03;;;-143.84;92.14
6032;BME280;3044;43.232;27.972;2023-05-28T08:33:44;43834.44;;;-143.84;92.43
6032;BME280;3044;43.232;27.972;2023-05-28T08:36:12;43824.91;;;-143.84;92.15
6032;BME280;3044;43.232;27.972;2023-05-28T08:38:39;43819.19;;;-143.84;91.23
6032;BME280;3044;43.232;27.972;2023-05-28T08:41:07;43853.47;;;-143.84;91.16
6032;BME280;3044;43.232;27.972;2023-05-28T08:43:35;43882.00;;;-143.84;91.00
6032;BME280;3044;43.232;27.972;2023-05-28T08:46:02;43910.56;;;-143.84;90.65
6032;BME280;3044;43.232;27.972;2023-05-28T08:48:33;43866.78;;;-143.84;90.79
6032;BME280;3044;43.232;27.972;2023-05-28T08:51:02;43891.53;;;-143.84;90.66
6032;BME280;3044;43.232;27.972;2023-05-28T08:53:35;43967.69;;;-143.84;90.24
6032;BME280;3044;43.232;27.972;2023-05-28T08:56:05;44020.97;;;-143.84;89.92
6032;BME280;3044;43.232;27.972;2023-05-28T08:58:34;43988.63;;;-143.84;90.07
6032;BME280;3044;43.232;27.972;2023-05-28T09:01:03;44036.22;;;-143.84;89.53
6032;BME280;3044;43.232;27.972;2023-05-28T09:03:32;44152.31;;;-143.84;88.83
6032;BME280;3044;43.232;27.972;2023-05-28T09:06:00;44306.53;;;-143.84;88.36
6032;BME280;3044;43.232;27.972;2023-05-28T09:08:27;44354.13;;;-143.84;87.99
6032;BME280;3044;43.232;27.972;2023-05-28T09:10:57;44597.81;;;-143.84;86.59
6032;BME280;3044;43.232;27.972;2023-05-28T09:13:25;44529.28;;;-143.84;87.00
6032;BME280;3044;43.232;27.972;2023-05-28T09:15:53;44647.31;;;-143.84;86.11
6032;BME280;3044;43.232;27.972;2023-05-28T09:18:20;44851.03;;;-143.84;84.23
6032;BME280;3044;43.232;27.972;2023-05-28T09:20:48;44891.03;;;-143.84;83.43
6032;BME280;3044;43.232;27.972;2023-05-28T09:23:17;44980.53;;;-143.84;81.85
6032;BME280;3044;43.232;27.972;2023-05-28T09:25:46;45012.88;;;-143.84;80.08
6032;BME280;3044;43.232;27.972;2023-05-28T09:28:14;45007.19;;;-143.84;79.89
6032;BME280;3044;43.232;27.972;2023-05-28T09:30:41;45024.31;;;-143.84;77.70
6032;BME280;3044;43.232;27.972;2023-05-28T09:33:09;45050.97;;;-143.84;74.87
6032;BME280;3044;43.232;27.972;2023-05-28T09:35:36;45064.31;;;-143.84;71.51
6032;BME280;3044;43.232;27.972;2023-05-28T09:38:04;45075.72;;;-143.84;72.50
6032;BME280;3044;43.232;27.972;2023-05-28T09:40:31;45068.13;;;-143.84;72.82
6032;BME280;3044;43.232;27.972;2023-05-28T09:43:04;45066.22;;;-143.84;69.78
6032;BME280;3044;43.232;27.972;2023-05-28T09:45:34;45075.72;;;-143.84;69.06
6032;BME280;3044;43.232;27.972;2023-05-28T09:48:02;45071.91;;;-143.84;69.36
6032;BME280;3044;43.232;27.972;2023-05-28T09:50:29;45073.81;;;-143.84;65.16
6032;BME280;3044;43.232;27.972;2023-05-28T09:52:58;45077.63;;;-143.84;64.56
6032;BME280;3044;43.232;27.972;2023-05-28T09:55:26;45071.91;;;-143.84;63.33
6032;BME280;3044;43.232;27.972;2023-05-28T09:57:59;45089.06;;;-143.84;63.71
6032;BME280;3044;43.232;27.972;2023-05-28T10:00:31;45045.25;;;-143.84;65.43
6032;BME280;3044;43.232;27.972;2023-05-28T10:03:12;45087.16;;;-143.84;64.63
6032;BME280;3044;43.232;27.972;2023-05-28T10:05:43;45079.53;;;-143.84;65.39
6032;BME280;3044;43.232;27.972;2023-05-28T10:08:11;45081.44;;;-143.84;64.22
6032;BME280;3044;43.232;27.972;2023-05-28T10:10:41;45083.34;;;-143.84;64.94
6032;BME280;3044;43.232;27.972;2023-05-28T10:13:09;45087.16;;;-143.84;65.08
6032;BME280;3044;43.232;27.972;2023-05-28T10:15:37;45092.88;;;-143.84;66.08
6032;BME280;3044;43.232;27.972;2023-05-28T10:18:07;45089.06;;;-143.84;66.47
6032;BME280;3044;43.232;27.972;2023-05-28T10:20:35;45089.06;;;-143.84;65.66
6032;BME280;3044;43.232;27.972;2023-05-28T10:23:02;45081.44;;;-143.84;64.50
6032;BME280;3044;43.232;27.972;2023-05-28T10:25:30;45102.38;;;-143.84;65.67
6032;BME280;3044;43.232;27.972;2023-05-28T10:27:59;45098.56;;;-143.84;64.47
6032;BME280;3044;43.232;27.972;2023-05-28T10:30:31;45064.31;;;-143.84;64.55
6032;BME280;3044;43.232;27.972;2023-05-28T10:32:59;45090.97;;;-143.84;64.11
6032;BME280;3044;43.232;27.972;2023-05-28T10:35:28;45094.78;;;-143.84;63.83
6032;BME280;3044;43.232;27.972;2023-05-28T10:38:05;45079.53;;;-143.84;64.56
6032;BME280;3044;43.232;27.972;2023-05-28T10:40:34;45106.19;;;-143.84;64.48
6032;BME280;3044;43.232;27.972;2023-05-28T10:43:02;45111.91;;;-143.84;64.56
6032;BME280;3044;43.232;27.972;2023-05-28T10:45:34;45083.34;;;-143.84;65.31
6032;BME280;3044;43.232;27.972;2023-05-28T10:48:02;45096.66;;;-143.84;66.27
6032;BME280;3044;43.232;27.972;2023-05-28T10:50:32;45064.31;;;-143.84;67.66
6032;BME280;3044;43.232;27.972;2023-05-28T10:53:06;45102.38;;;-143.84;68.85
6032;BME280;3044;43.232;27.972;2023-05-28T10:55:46;45083.34;;;-143.84;69.27
6032;BME280;3044;43.232;27.972;2023-05-28T10:58:25;45089.06;;;-143.84;69.78
6032;BME280;3044;43.232;27.972;2023-05-28T11:00:59;45073.81;;;-143.84;69.95
6032;BME280;3044;43.232;27.972;2023-05-28T11:03:39;45090.97;;;-143.84;69.46
6032;BME280;3044;43.232;27.972;2023-05-28T11:06:09;45085.25;;;-143.84;69.48
6032;BME280;3044;43.232;27.972;2023-05-28T11:08:47;45079.53;;;-143.84;70.08
6032;BME280;3044;43.232;27.972;2023-05-28T11:11:17;45090.97;;;-143.84;70.56
6032;BME280;3044;43.232;27.972;2023-05-28T11:13:45;45079.53;;;-143.84;70.63
6032;BME280;3044;43.232;27.972;2023-05-28T11:16:14;45098.56;;;-143.84;71.82
6032;BME280;3044;43.232;27.972;2023-05-28T11:18:59;45094.78;;;-143.84;71.64
6032;BME280;3044;43.232;27.972;2023-05-28T11:21:28;45070.00;;;-143.84;70.92
6032;BME280;3044;43.232;27.972;2023-05-28T11:24:00;45081.44;;;-143.84;69.99
6032;BME280;3044;43.232;27.972;2023-05-28T11:26:28;45089.06;;;-143.84;69.21
6032;BME280;3044;43.232;27.972;2023-05-28T11:28:55;45087.16;;;-143.84;70.17
6032;BME280;3044;43.232;27.972;2023-05-28T11:31:23;45096.66;;;-143.84;69.14
6032;BME280;3044;43.232;27.972;2023-05-28T11:33:50;45062.41;;;-143.84;68.81
6032;BME280;3044;43.232;27.972;2023-05-28T11:36:18;45077.63;;;-143.84;68.14
6032;BME280;3044;43.232;27.972;2023-05-28T11:38:47;45083.34;;;-143.84;67.89
6032;BME280;3044;43.232;27.972;2023-05-28T11:41:14;45096.66;;;-143.84;67.33
6032;BME280;3044;43.232;27.972;2023-05-28T11:43:41;45064.31;;;-143.84;66.30
6032;BME280;3044;43.232;27.972;2023-05-28T11:46:08;45083.34;;;-143.84;63.92
6032;BME280;3044;43.232;27.972;2023-05-28T11:48:37;45068.13;;;-143.84;67.29
6032;BME280;3044;43.232;27.972;2023-05-28T11:51:05;45064.31;;;-143.84;65.94
6032;BME280;3044;43.232;27.972;2023-05-28T11:53:39;45050.97;;;-143.84;65.48
6032;BME280;3044;43.232;27.972;2023-05-28T11:56:09;45073.81;;;-143.84;63.83
6032;BME280;3044;43.232;27.972;2023-05-28T11:58:37;45077.63;;;-143.84;64.23
6032;BME280;3044;43.232;27.972;2023-05-28T12:01:06;45087.16;;;-143.84;65.02
6032;BME280;3044;43.232;27.972;2023-05-28T12:03:33;45098.56;;;-143.84;65.29
6032;BME280;3044;43.232;27.972;2023-05-28T12:06:01;45079.53;;;-143.84;65.27
6032;BME280;3044;43.232;27.972;2023-05-28T12:08:29;45075.72;;;-143.84;65.47
6032;BME280;3044;43.232;27.972;2023-05-28T12:11:00;45079.53;;;-143.84;66.19
6032;BME280;3044;43.232;27.972;2023-05-28T12:13:34;45066.22;;;-143.84;65.02
6032;BME280;3044;43.232;27.972;2023-05-28T12:16:08;45054.78;;;-143.84;64.08
6032;BME280;3044;43.232;27.972;2023-05-28T12:18:40;45075.72;;;-143.84;63.52
6032;BME280;3044;43.232;27.972;2023-05-28T12:21:11;45050.97;;;-143.84;63.50
6032;BME280;3044;43.232;27.972;2023-05-28T12:23:39;45087.16;;;-143.84;64.38
6032;BME280;3044;43.232;27.972;2023-05-28T12:26:10;45077.63;;;-143.84;64.13
6032;BME280;3044;43.232;27.972;2023-05-28T12:28:39;45075.72;;;-143.84;65.63
6032;BME280;3044;43.232;27.972;2023-05-28T12:31:07;45081.44;;;-143.84;64.06
6032;BME280;3044;43.232;27.972;2023-05-28T12:33:35;45064.31;;;-143.84;64.32
6032;BME280;3044;43.232;27.972;2023-05-28T12:36:03;45083.34;;;-143.84;63.75
6032;BME280;3044;43.232;27.972;2023-05-28T12:38:31;45068.13;;;-143.84;64.77
6032;BME280;3044;43.232;27.972;2023-05-28T12:40:58;45083.34;;;-143.84;64.60
6032;BME280;3044;43.232;27.972;2023-05-28T12:43:26;45071.91;;;-143.84;63.60
6032;BME280;3044;43.232;27.972;2023-05-28T12:45:54;45064.31;;;-143.84;65.00
6032;BME280;3044;43.232;27.972;2023-05-28T12:48:21;45087.16;;;-143.84;65.33
6032;BME280;3044;43.232;27.972;2023-05-28T12:50:49;45071.91;;;-143.84;62.63
6032;BME280;3044;43.232;27.972;2023-05-28T12:53:16;45062.41;;;-143.84;61.66
6032;BME280;3044;43.232;27.972;2023-05-28T12:55:43;45079.53;;;-143.84;62.89